Time;durP1;ratioP1;P1;durP2;ratioP2;P2;SDS_P1;SDS_P2;PMS_P1;PMS_P2;Temp;Humidity;BMP_temperature;BMP_pressure;BME280_temperature;BME280_humidity;BME280_pressure;Samples;Min_cycle;Max_cycle;Signal;HPM_P1;HPM_P2
2023/12/25 00:01:09;;;;;;;6.07;2.47;;;14.00;94.20;;;15.56;62.93;99738.28;3080709;46;20524;-66
2023/12/25 00:03:38;;;;;;;3.90;1.90;;;14.00;94.60;;;15.54;63.36;99735.06;3080692;46;20452;-64
2023/12/25 00:06:17;;;;;;;6.97;2.23;;;14.00;94.30;;;15.52;63.26;99737.13;3080957;46;20517;-66
2023/12/25 00:08:48;;;;;;;8.67;2.10;;;14.00;94.30;;;15.49;63.24;99748.19;3080510;46;20440;-68
2023/12/25 00:11:17;;;;;;;5.60;2.17;;;14.00;94.30;;;15.47;63.71;99734.38;3080175;46;20520;-65
2023/12/25 00:13:47;;;;;;;8.03;2.30;;;13.90;94.20;;;15.46;63.42;99735.38;3080780;46;20427;-66
2023/12/25 00:16:15;;;;;;;4.07;1.67;;;13.90;94.30;;;15.46;63.65;99751.31;3080737;46;20459;-66
2023/12/25 00:18:44;;;;;;;5.17;1.80;;;13.90;94.40;;;15.47;64.00;99726.41;3080294;46;20442;-66
2023/12/25 00:21:13;;;;;;;8.50;1.77;;;13.90;94.60;;;15.48;63.87;99731.47;3080665;46;20948;-66
2023/12/25 00:23:41;;;;;;;5.20;1.83;;;13.90;94.60;;;15.48;64.28;99733.31;3080679;46;20431;-65
2023/12/25 00:26:09;;;;;;;6.33;2.07;;;13.90;94.70;;;15.49;64.05;99721.69;3080784;46;20435;-65
2023/12/25 00:28:38;;;;;;;6.73;2.10;;;13.90;94.70;;;15.50;64.14;99717.97;3079717;46;20439;-67
2023/12/25 00:31:06;;;;;;;4.20;2.07;;;13.90;94.70;;;15.50;64.34;99729.38;3080520;46;20451;-66
2023/12/25 00:33:34;;;;;;;7.17;2.83;;;13.90;94.70;;;15.51;64.04;99746.13;3082625;46;20427;-65
2023/12/25 00:36:04;;;;;;;4.00;1.70;;;13.90;94.70;;;15.52;63.95;99753.06;3083067;46;20456;-66
2023/12/25 00:38:32;;;;;;;5.37;2.03;;;13.90;94.80;;;15.53;64.01;99742.19;3082524;46;20446;-66
2023/12/25 00:41:01;;;;;;;7.77;2.20;;;13.90;94.70;;;15.55;63.79;99752.56;3082465;46;20511;-66
2023/12/25 00:43:30;;;;;;;8.70;2.27;;;13.90;94.70;;;15.57;64.07;99734.56;3082531;46;21084;-66
2023/12/25 00:45:58;;;;;;;6.10;2.40;;;13.90;94.70;;;15.58;63.95;99746.81;3083017;46;20499;-67
2023/12/25 00:48:26;;;;;;;7.10;1.97;;;13.90;94.60;;;15.58;63.93;99738.84;3081962;46;20509;-66
2023/12/25 00:50:55;;;;;;;5.47;2.33;;;13.90;94.70;;;15.59;63.89;99743.91;3083106;46;20455;-65
2023/12/25 00:53:24;;;;;;;6.30;2.30;;;14.00;94.70;;;15.59;64.04;99743.13;3083213;46;20514;-66
2023/12/25 00:55:52;;;;;;;5.37;1.97;;;14.00;94.80;;;15.59;63.71;99733.31;3082963;46;20491;-66
2023/12/25 00:58:20;;;;;;;7.93;2.27;;;13.90;94.70;;;15.61;63.79;99746.34;3081727;46;20448;-67
2023/12/25 01:00:49;;;;;;;6.50;2.00;;;14.00;94.70;;;15.64;63.95;99747.75;3083142;46;20998;-63
2023/12/25 01:03:18;;;;;;;3.87;1.80;;;14.00;94.60;;;15.63;63.79;99744.28;3082683;46;20481;-66
2023/12/25 01:05:46;;;;;;;9.27;2.53;;;14.00;94.60;;;15.64;63.75;99723.88;3082710;46;20568;-64
2023/12/25 01:08:14;;;;;;;4.80;2.00;;;14.00;94.60;;;15.63;63.90;99749.56;3081921;46;21112;-65
2023/12/25 01:10:43;;;;;;;5.87;1.87;;;14.00;94.60;;;15.64;63.70;99753.84;3082766;46;20426;-66
2023/12/25 01:13:11;;;;;;;5.63;2.17;;;14.00;94.70;;;15.62;64.03;99763.88;3082813;46;20569;-66
2023/12/25 01:15:40;;;;;;;9.93;2.37;;;14.00;94.60;;;15.62;63.91;99755.91;3082435;46;21020;-66
2023/12/25 01:18:08;;;;;;;5.70;1.80;;;14.00;94.70;;;15.59;63.89;99772.31;3082088;46;20439;-65
2023/12/25 01:20:37;;;;;;;4.77;1.80;;;14.00;94.70;;;15.58;63.99;99754.75;3082645;46;21008;-66
2023/12/25 01:23:05;;;;;;;5.00;1.80;;;14.00;94.60;;;15.59;63.94;99764.34;3082457;46;21007;-65
2023/12/25 01:25:33;;;;;;;8.27;1.87;;;14.00;94.60;;;15.56;63.68;99757.66;3082663;46;20431;-66
2023/12/25 01:28:02;;;;;;;5.23;1.70;;;14.00;94.40;;;15.55;63.63;99763.19;3082199;46;20467;-65
2023/12/25 01:30:30;;;;;;;4.07;1.93;;;14.00;94.30;;;15.55;63.60;99758.69;3082502;46;20432;-66
2023/12/25 01:32:59;;;;;;;3.90;2.10;;;14.00;94.30;;;15.56;63.45;99759.50;3082602;46;20511;-66
2023/12/25 01:35:27;;;;;;;8.03;2.00;;;14.00;94.20;;;15.55;63.31;99764.00;3082427;46;20442;-66
2023/12/25 01:37:56;;;;;;;6.23;1.93;;;14.00;94.10;;;15.56;63.17;99767.47;3081803;46;21175;-65
2023/12/25 01:40:24;;;;;;;6.07;1.87;;;14.00;94.10;;;15.56;63.30;99765.63;3082446;46;20488;-66
2023/12/25 01:42:56;;;;;;;5.07;1.90;;;14.00;94.00;;;15.57;62.98;99771.72;3081485;46;20423;-65
2023/12/25 01:45:24;;;;;;;5.43;1.63;;;14.00;93.90;;;15.56;63.05;99780.72;3082283;46;20432;-66
2023/12/25 01:47:53;;;;;;;7.60;2.30;;;14.00;93.90;;;15.54;62.59;99774.84;3081367;46;20459;-66
2023/12/25 01:50:22;;;;;;;4.07;2.07;;;14.00;93.80;;;15.53;62.77;99776.69;3082108;46;20439;-67
2023/12/25 01:52:51;;;;;;;4.50;1.80;;;14.00;93.70;;;15.52;62.74;99771.63;3082015;46;20432;-66
2023/12/25 01:55:20;;;;;;;4.10;1.90;;;14.00;93.70;;;15.52;62.47;99779.56;3081961;46;20452;-66
2023/12/25 01:57:48;;;;;;;6.73;2.27;;;13.90;93.50;;;15.53;62.48;99789.13;3081765;46;20443;-67
2023/12/25 02:00:17;;;;;;;4.53;2.10;;;13.90;93.40;;;15.53;62.25;99802.38;3082295;46;20524;-66
2023/12/25 02:02:45;;;;;;;7.30;2.07;;;13.90;93.40;;;15.55;62.25;99795.00;3081829;46;20574;-66
2023/12/25 02:05:15;;;;;;;5.27;2.10;;;14.00;93.50;;;15.58;62.27;99790.06;3081984;46;20974;-66
2023/12/25 02:07:46;;;;;;;7.30;1.97;;;14.00;93.50;;;15.60;62.11;99797.78;3081758;46;20497;-66
2023/12/25 02:10:29;;;;;;;4.70;1.80;;;14.00;93.50;;;15.57;62.25;99808.84;3082444;46;20423;-66
2023/12/25 02:12:59;;;;;;;5.40;1.63;;;14.00;93.50;;;15.63;62.10;99804.47;3082093;46;20532;-64
2023/12/25 02:15:28;;;;;;;6.43;1.80;;;14.00;93.60;;;15.62;62.13;99798.34;3082377;46;20456;-66
2023/12/25 02:17:57;;;;;;;6.30;1.80;;;14.00;93.60;;;15.63;62.00;99813.25;3080835;46;20557;-67
2023/12/25 02:20:26;;;;;;;8.00;2.57;;;14.00;93.50;;;15.65;61.90;99837.69;3080658;46;20455;-64
2023/12/25 02:22:59;;;;;;;5.13;1.87;;;14.00;93.40;;;15.64;61.53;99836.09;3082237;46;20440;-65
2023/12/25 02:25:33;;;;;;;3.50;1.50;;;14.00;93.10;;;15.64;61.55;99825.47;3081411;46;20427;-66
2023/12/25 02:28:02;;;;;;;6.53;1.70;;;14.00;93.00;;;15.64;61.27;99824.66;3082318;46;20484;-69
2023/12/25 02:30:30;;;;;;;7.63;1.90;;;14.00;92.90;;;15.65;60.83;99827.09;3081182;46;20426;-66
2023/12/25 02:33:04;;;;;;;6.30;2.17;;;14.00;92.50;;;15.66;61.03;99828.72;3082011;46;20439;-66
2023/12/25 02:35:32;;;;;;;6.40;1.73;;;14.00;92.60;;;15.65;60.46;99821.78;3081533;46;20455;-66
2023/12/25 02:38:01;;;;;;;5.93;1.97;;;14.00;92.40;;;15.65;60.20;99810.34;3081170;46;21119;-66
2023/12/25 02:40:30;;;;;;;2.50;1.40;;;14.00;92.10;;;15.66;60.32;99818.09;3081435;46;20503;-66
2023/12/25 02:42:58;;;;;;;4.33;1.43;;;14.00;92.00;;;15.66;59.77;99815.44;3081455;46;20432;-66
2023/12/25 02:45:26;;;;;;;8.80;2.70;;;14.00;92.00;;;15.67;59.96;99824.19;3081806;46;20452;-65
2023/12/25 02:47:55;;;;;;;6.90;1.70;;;14.00;92.00;;;15.66;59.84;99823.41;3080446;46;20459;-66
2023/12/25 02:50:24;;;;;;;6.80;1.87;;;14.00;92.00;;;15.65;59.27;99818.31;3081570;46;20423;-66
2023/12/25 02:52:53;;;;;;;5.47;1.87;;;14.10;91.90;;;15.64;59.76;99820.19;3081875;46;20516;-66
2023/12/25 02:55:21;;;;;;;4.83;1.93;;;14.00;91.90;;;15.63;59.67;99821.19;3080664;46;20451;-66
2023/12/25 02:57:50;;;;;;;6.33;1.97;;;14.00;91.70;;;15.64;59.44;99824.66;3081307;46;20471;-65
2023/12/25 03:00:19;;;;;;;3.43;1.63;;;14.00;91.80;;;15.62;59.51;99819.56;3081446;46;20489;-65
2023/12/25 03:02:47;;;;;;;9.97;1.90;;;14.00;91.60;;;15.58;59.52;99827.19;3081632;46;20991;-66
2023/12/25 03:05:15;;;;;;;4.93;1.87;;;14.00;91.70;;;15.57;59.49;99835.38;3081481;46;20428;-66
2023/12/25 03:07:44;;;;;;;6.43;1.53;;;14.00;91.70;;;15.56;59.36;99839.06;3081298;46;20463;-66
2023/12/25 03:10:12;;;;;;;4.80;1.67;;;14.00;91.70;;;15.54;59.31;99841.16;3081719;46;20482;-66
2023/12/25 03:12:40;;;;;;;6.23;1.67;;;14.00;91.60;;;15.53;59.05;99828.91;3081577;46;21027;-66
2023/12/25 03:15:09;;;;;;;2.47;1.17;;;13.90;91.50;;;15.52;59.18;99838.72;3081145;46;20431;-66
2023/12/25 03:17:37;;;;;;;4.73;1.87;;;13.90;91.50;;;15.52;59.09;99843.22;3080597;46;20585;-66
2023/12/25 03:20:07;;;;;;;4.47;1.60;;;13.90;91.50;;;15.50;59.36;99864.66;3081310;46;20452;-65
2023/12/25 03:22:36;;;;;;;6.37;1.70;;;13.90;91.50;;;15.48;59.03;99850.81;3081430;46;20456;-65
2023/12/25 03:25:05;;;;;;;7.20;2.13;;;13.90;91.50;;;15.48;58.51;99857.97;3081587;46;20435;-66
2023/12/25 03:27:33;;;;;;;3.43;1.63;;;13.90;91.10;;;15.45;58.32;99866.41;3081069;46;20443;-66
2023/12/25 03:30:02;;;;;;;4.57;1.83;;;13.90;90.60;;;15.44;57.92;99862.09;3081309;46;20990;-66
2023/12/25 03:32:30;;;;;;;7.50;1.80;;;13.80;90.60;;;15.42;57.79;99867.63;3081027;46;20431;-65
2023/12/25 03:34:59;;;;;;;6.50;1.53;;;13.80;90.40;;;15.42;57.74;99874.75;3080968;46;20595;-66
2023/12/25 03:37:27;;;;;;;5.20;1.40;;;13.80;90.50;;;15.41;57.35;99886.41;3080786;46;20443;-66
2023/12/25 03:39:57;;;;;;;3.93;1.63;;;13.80;90.20;;;15.40;56.62;99874.97;3080921;46;21020;-64
2023/12/25 03:42:25;;;;;;;4.23;1.73;;;13.80;89.40;;;15.36;56.82;99896.88;3080667;46;20431;-67
2023/12/25 03:44:54;;;;;;;3.87;1.30;;;13.70;89.70;;;15.34;56.84;99897.09;3081152;46;20427;-67
2023/12/25 03:47:22;;;;;;;10.67;2.13;;;13.70;89.90;;;15.33;56.66;99889.38;3080531;46;20456;-66
2023/12/25 03:49:51;;;;;;;4.87;1.33;;;13.70;89.60;;;15.32;56.64;99898.38;3080388;46;20593;-65
2023/12/25 03:52:19;;;;;;;4.60;1.53;;;13.70;89.20;;;15.30;56.42;99898.59;3081143;46;21397;-66
2023/12/25 03:54:47;;;;;;;4.87;1.47;;;13.70;88.90;;;15.29;56.37;99885.56;3080575;46;20440;-67
2023/12/25 03:57:16;;;;;;;3.20;1.40;;;13.70;89.20;;;15.27;56.31;99887.63;3080233;46;21078;-66
2023/12/25 03:59:44;;;;;;;4.47;1.60;;;13.70;88.90;;;15.26;56.67;99888.69;3080938;46;20548;-66
2023/12/25 04:02:13;;;;;;;4.37;1.40;;;13.60;89.20;;;15.22;56.52;99883.00;3080596;46;20508;-66
2023/12/25 04:04:41;;;;;;;6.87;1.47;;;13.60;89.20;;;15.19;56.70;99888.75;3080876;46;20556;-66
2023/12/25 04:07:09;;;;;;;4.10;1.57;;;13.60;89.40;;;15.18;56.77;99894.28;3082170;46;20583;-66
2023/12/25 04:09:38;;;;;;;5.60;1.50;;;13.60;89.50;;;15.16;56.43;99896.34;3082875;46;20451;-66
2023/12/25 04:12:07;;;;;;;3.77;1.43;;;13.60;89.20;;;15.16;56.51;99912.25;3083144;46;20610;-66
2023/12/25 04:14:39;;;;;;;6.63;1.83;;;13.60;89.20;;;15.14;56.65;99915.13;3083222;46;20455;-66
2023/12/25 04:17:08;;;;;;;7.03;1.80;;;13.60;89.30;;;15.14;56.57;99911.69;3082525;46;20450;-64
2023/12/25 04:19:36;;;;;;;7.20;2.10;;;13.50;89.50;;;15.13;56.66;99918.81;3082945;46;20557;-65
2023/12/25 04:22:05;;;;;;;9.93;2.07;;;13.50;89.30;;;15.12;56.57;99900.50;3083210;46;20429;-66
2023/12/25 04:24:33;;;;;;;5.17;1.80;;;13.50;89.30;;;15.07;56.67;99918.91;3083339;46;20489;-67
2023/12/25 04:27:01;;;;;;;6.50;2.00;;;13.50;89.60;;;15.02;57.18;99905.53;3082845;46;20483;-66
2023/12/25 04:29:30;;;;;;;6.90;1.90;;;13.50;89.80;;;14.97;57.43;99919.44;3083358;46;20431;-66
2023/12/25 04:31:58;;;;;;;4.47;1.60;;;13.50;90.00;;;14.91;57.44;99929.09;3081929;46;20462;-66
2023/12/25 04:34:27;;;;;;;7.53;1.73;;;13.50;90.20;;;14.89;57.85;99932.97;3082833;46;20549;-66
2023/12/25 04:36:55;;;;;;;6.30;1.70;;;13.40;90.40;;;14.84;58.29;99917.75;3082536;46;20467;-66
2023/12/25 04:39:23;;;;;;;3.87;1.50;;;13.40;90.50;;;14.78;58.13;99931.91;3083240;46;21096;-65
2023/12/25 04:41:52;;;;;;;4.83;1.60;;;13.30;90.60;;;14.71;58.78;99925.84;3082582;46;20432;-66
2023/12/25 04:44:20;;;;;;;6.03;2.17;;;13.30;90.80;;;14.65;58.77;99932.03;3082692;46;20556;-65
2023/12/25 04:46:49;;;;;;;9.07;2.20;;;13.20;90.90;;;14.60;59.13;99937.19;3082702;46;20524;-66
2023/12/25 04:49:17;;;;;;;3.93;1.63;;;13.20;91.00;;;14.56;59.03;99951.91;3082845;46;21102;-66
2023/12/25 04:51:45;;;;;;;4.70;1.70;;;13.10;91.10;;;14.54;59.40;99955.78;3082828;46;20573;-65
2023/12/25 04:54:14;;;;;;;4.70;1.97;;;13.10;91.20;;;14.49;59.51;99967.06;3082982;46;20989;-66
2023/12/25 04:56:43;;;;;;;6.90;1.67;;;13.00;91.30;;;14.45;59.52;99979.13;3082608;46;20439;-66
2023/12/25 04:59:11;;;;;;;4.90;1.33;;;13.00;91.70;;;14.38;60.46;99966.97;3082777;46;20484;-66
2023/12/25 05:01:40;;;;;;;6.47;1.57;;;12.90;92.10;;;14.26;60.84;99969.47;3082676;46;20439;-64
2023/12/25 05:04:08;;;;;;;4.27;1.70;;;12.80;92.40;;;14.11;61.16;99967.16;3083115;46;21134;-67
2023/12/25 05:06:36;;;;;;;3.43;1.40;;;12.70;92.60;;;13.99;61.86;99965.41;3082164;46;20434;-66
2023/12/25 05:09:05;;;;;;;4.27;1.47;;;12.60;92.70;;;13.85;62.85;99967.38;3082732;46;20426;-65
2023/12/25 05:11:34;;;;;;;4.40;1.50;;;12.60;93.20;;;13.75;63.12;99958.28;3082326;46;21016;-66
2023/12/25 05:14:02;;;;;;;6.10;1.77;;;12.40;93.30;;;13.65;63.24;99955.28;3082915;46;20432;-66
2023/12/25 05:16:31;;;;;;;5.33;1.80;;;12.40;93.50;;;13.60;63.96;99960.44;3081853;46;20448;-66
2023/12/25 05:18:59;;;;;;;8.60;1.83;;;12.30;93.70;;;13.55;63.97;99972.44;3082419;46;21002;-66
2023/12/25 05:21:27;;;;;;;7.10;2.17;;;12.20;93.80;;;13.53;64.37;99968.38;3082568;46;20981;-64
2023/12/25 05:23:56;;;;;;;4.93;1.37;;;12.20;94.00;;;13.50;64.27;99964.31;3082733;46;20452;-66
2023/12/25 05:26:27;;;;;;;5.73;1.90;;;12.10;94.00;;;13.52;64.36;99966.78;3082209;46;20460;-66
2023/12/25 05:28:55;;;;;;;4.60;1.93;;;12.10;94.10;;;13.54;64.43;99976.13;3082517;46;20449;-66
2023/12/25 05:31:24;;;;;;;4.03;1.47;;;12.10;94.10;;;13.56;64.52;99974.06;3082508;46;20428;-66
2023/12/25 05:33:52;;;;;;;9.03;2.20;;;12.10;94.10;;;13.60;64.23;99969.16;3082639;46;20432;-66
2023/12/25 05:36:21;;;;;;;7.03;2.20;;;12.10;94.10;;;13.64;64.02;99970.34;3082011;46;20486;-67
2023/12/25 05:38:49;;;;;;;8.80;1.93;;;12.10;94.00;;;13.70;64.35;99973.97;3081953;46;20451;-66
2023/12/25 05:41:36;;;;;;;6.10;2.20;;;12.10;94.00;;;13.74;63.79;99980.47;3081958;46;20433;-66
2023/12/25 05:44:06;;;;;;;7.70;2.33;;;12.20;93.90;;;13.79;63.95;99993.84;3082740;46;20452;-65
2023/12/25 05:46:35;;;;;;;6.37;1.87;;;12.20;93.80;;;13.84;63.41;99991.38;3081989;46;20432;-68
2023/12/25 05:49:04;;;;;;;5.83;1.70;;;12.20;93.50;;;13.88;63.35;99998.66;3080848;46;21010;-66
2023/12/25 05:51:33;;;;;;;6.30;1.77;;;12.30;93.50;;;13.94;62.85;100003.13;3081823;46;21103;-65
2023/12/25 05:54:02;;;;;;;5.87;2.33;;;12.30;93.30;;;13.99;62.24;99999.81;3082282;46;20606;-66
2023/12/25 05:56:31;;;;;;;6.77;1.97;;;12.30;92.80;;;14.03;62.00;100007.09;3081987;46;20975;-65
2023/12/25 05:58:59;;;;;;;9.17;2.07;;;12.40;92.90;;;14.06;62.01;100011.16;3082238;46;20438;-68
2023/12/25 06:01:27;;;;;;;9.73;1.87;;;12.40;92.90;;;14.09;61.23;100005.44;3082143;46;20560;-66
2023/12/25 06:03:57;;;;;;;6.60;1.90;;;12.40;92.20;;;14.10;61.09;100007.06;3082267;46;21076;-66
2023/12/25 06:06:25;;;;;;;6.47;1.83;;;12.50;92.30;;;14.15;60.88;100020.47;3081718;46;20432;-66
2023/12/25 06:08:55;;;;;;;7.13;1.93;;;12.50;92.20;;;14.18;60.61;100017.38;3081852;46;20517;-65
2023/12/25 06:11:24;;;;;;;6.07;2.00;;;12.50;92.00;;;14.21;60.60;100019.59;3082014;46;21018;-64
2023/12/25 06:13:52;;;;;;;8.50;1.80;;;12.60;91.90;;;14.23;60.46;100009.63;3082255;46;21074;-65
2023/12/25 06:16:20;;;;;;;8.93;2.00;;;12.60;91.90;;;14.25;60.39;100012.84;3081966;46;20596;-64
2023/12/25 06:18:49;;;;;;;7.50;1.97;;;12.60;91.90;;;14.26;60.45;100023.22;3081686;46;21060;-65
2023/12/25 06:21:17;;;;;;;6.83;1.70;;;12.60;91.90;;;14.25;60.13;100018.97;3082063;46;20427;-66
2023/12/25 06:23:46;;;;;;;6.70;1.67;;;12.60;91.80;;;14.25;60.50;100015.50;3081902;46;21101;-66
2023/12/25 06:26:14;;;;;;;6.33;1.77;;;12.60;91.80;;;14.24;60.26;100024.44;3082088;46;20440;-63
2023/12/25 06:28:43;;;;;;;9.43;2.07;;;12.60;91.70;;;14.22;59.94;100043.22;3081306;46;20566;-66
2023/12/25 06:31:11;;;;;;;6.00;1.90;;;12.60;91.70;;;14.20;59.82;100033.84;3081779;46;20517;-66
2023/12/25 06:33:40;;;;;;;3.50;1.33;;;12.60;91.70;;;14.18;60.23;100030.63;3081897;46;20579;-67
2023/12/25 06:36:09;;;;;;;6.73;2.20;;;12.60;91.60;;;14.16;60.09;100037.97;3081886;46;20508;-66
2023/12/25 06:38:37;;;;;;;6.10;1.93;;;12.60;91.70;;;14.17;60.10;100036.94;3081071;46;20443;-62
2023/12/25 06:41:05;;;;;;;8.57;2.00;;;12.60;91.70;;;14.17;60.05;100039.56;3081514;46;20427;-64
2023/12/25 06:43:34;;;;;;;4.50;1.67;;;12.60;91.70;;;14.17;60.05;100055.44;3082098;46;20434;-64
2023/12/25 06:46:02;;;;;;;4.60;1.80;;;12.60;91.70;;;14.17;60.26;100052.81;3081735;46;20459;-66
2023/12/25 06:48:30;;;;;;;6.70;1.90;;;12.60;91.70;;;14.17;60.14;100056.28;3080909;46;20439;-64
2023/12/25 06:51:00;;;;;;;7.10;2.37;;;12.60;91.80;;;14.18;59.93;100076.44;3081829;46;20427;-66
2023/12/25 06:53:28;;;;;;;8.73;1.97;;;12.60;91.80;;;14.17;60.31;100063.38;3081759;46;20580;-66
2023/12/25 06:55:57;;;;;;;8.30;1.93;;;12.60;91.80;;;14.15;60.04;100063.63;3081529;46;20441;-64
2023/12/25 06:58:25;;;;;;;7.50;2.40;;;12.60;91.90;;;14.12;60.16;100076.47;3081121;46;20459;-66
2023/12/25 07:00:54;;;;;;;5.07;1.80;;;12.60;91.90;;;14.09;60.23;100076.91;3081940;46;21152;-65
2023/12/25 07:03:22;;;;;;;5.73;1.70;;;12.50;91.90;;;14.06;60.66;100074.66;3081540;46;20568;-66
2023/12/25 07:05:51;;;;;;;6.23;1.87;;;12.50;92.00;;;14.03;60.84;100073.25;3081764;46;20998;-65
2023/12/25 07:08:19;;;;;;;6.00;2.40;;;12.50;92.10;;;14.01;60.76;100083.25;3081303;46;20461;-67
2023/12/25 07:10:48;;;;;;;8.00;1.80;;;12.50;92.20;;;13.99;61.17;100087.13;3081684;46;20452;-65
2023/12/25 07:13:16;;;;;;;4.03;1.63;;;12.50;92.20;;;13.97;61.19;100097.13;3081981;46;20501;-66
2023/12/25 07:15:44;;;;;;;7.93;2.30;;;12.40;92.20;;;13.95;60.97;100102.59;3081464;46;20700;-66
2023/12/25 07:18:13;;;;;;;10.47;1.67;;;12.40;92.20;;;13.95;60.78;100099.97;3081031;46;20519;-66
2023/12/25 07:20:43;;;;;;;7.17;2.20;;;12.40;92.10;;;13.95;60.85;100089.38;3081285;46;20528;-66
2023/12/25 07:23:13;;;;;;;11.03;2.00;;;12.40;92.20;;;13.96;61.05;100100.78;3081227;46;20482;-65
2023/12/25 07:25:41;;;;;;;5.60;1.83;;;12.40;92.20;;;13.98;60.82;100104.03;3081388;46;20511;-66
2023/12/25 07:28:10;;;;;;;12.47;2.23;;;12.40;92.20;;;13.98;60.67;100104.03;3080796;46;20500;-66
2023/12/25 07:30:38;;;;;;;5.83;2.17;;;12.40;92.10;;;13.99;60.71;100100.38;3081043;46;20605;-66
2023/12/25 07:33:07;;;;;;;9.20;1.80;;;12.40;92.10;;;13.97;60.83;100102.41;3081328;46;20521;-66
2023/12/25 07:35:35;;;;;;;6.60;1.77;;;12.40;92.20;;;13.95;60.97;100112.41;3081134;46;21032;-66
2023/12/25 07:38:04;;;;;;;8.43;2.07;;;12.40;92.00;;;13.94;60.74;100108.94;3080773;46;20524;-65
2023/12/25 07:40:32;;;;;;;7.63;1.93;;;12.40;92.10;;;13.94;60.84;100118.69;3080652;46;20561;-66
2023/12/25 07:43:01;;;;;;;5.43;2.00;;;12.40;92.00;;;13.92;60.77;100129.50;3080473;46;20457;-64
2023/12/25 07:45:29;;;;;;;7.53;2.17;;;12.40;92.10;;;13.90;60.81;100134.22;3081008;46;20431;-66
2023/12/25 07:47:58;;;;;;;7.73;2.00;;;12.40;92.10;;;13.90;60.63;100136.03;3080784;46;20443;-65
2023/12/25 07:50:26;;;;;;;6.07;1.77;;;12.40;92.10;;;13.90;61.05;100144.78;3080660;46;20456;-66
2023/12/25 07:52:55;;;;;;;7.70;2.03;;;12.40;92.10;;;13.87;60.75;100134.63;3081254;46;20551;-66
2023/12/25 07:55:23;;;;;;;6.83;2.00;;;12.40;92.00;;;13.86;60.64;100140.13;3080950;46;20451;-66
2023/12/25 07:57:51;;;;;;;8.47;2.47;;;12.30;92.00;;;13.84;61.00;100144.78;3080403;46;21102;-66
2023/12/25 08:00:21;;;;;;;6.77;1.90;;;12.30;91.90;;;13.82;60.92;100146.84;3081046;46;20494;-64
2023/12/25 08:02:49;;;;;;;7.80;1.93;;;12.30;91.90;;;13.81;60.76;100155.81;3081128;46;20463;-64
2023/12/25 08:05:18;;;;;;;5.13;2.23;;;12.30;91.90;;;13.79;60.90;100150.72;3081235;46;20445;-64
2023/12/25 08:07:47;;;;;;;4.80;1.87;;;12.30;92.00;;;13.79;60.96;100157.84;3080795;46;20512;-66
2023/12/25 08:10:16;;;;;;;6.17;2.27;;;12.30;92.00;;;13.77;60.86;100171.28;3081362;46;20537;-66
2023/12/25 08:12:45;;;;;;;8.67;1.90;;;12.20;92.00;;;13.76;60.66;100164.38;3081171;46;20471;-66
2023/12/25 08:15:15;;;;;;;10.40;2.20;;;12.20;92.00;;;13.75;60.91;100165.38;3080994;46;20442;-65
2023/12/25 08:17:44;;;;;;;8.30;2.43;;;12.20;92.00;;;13.74;60.64;100176.19;3080315;46;20439;-66
2023/12/25 08:20:12;;;;;;;5.63;1.90;;;12.20;91.90;;;13.73;60.60;100174.56;3081143;46;21000;-64
2023/12/25 08:22:41;;;;;;;6.33;1.87;;;12.20;91.80;;;13.74;60.69;100173.53;3080800;46;20431;-63
2023/12/25 08:25:09;;;;;;;7.20;2.03;;;12.20;91.80;;;13.76;60.49;100171.50;3080485;46;20542;-64
2023/12/25 08:27:37;;;;;;;7.23;1.83;;;12.20;91.90;;;13.77;60.64;100189.78;3080173;46;20440;-65
2023/12/25 08:30:07;;;;;;;5.93;1.83;;;12.20;91.80;;;13.81;60.24;100184.91;3080957;46;20434;-63
2023/12/25 08:32:35;;;;;;;5.03;2.10;;;12.20;91.80;;;13.84;59.96;100187.13;3080637;46;20429;-66
2023/12/25 08:35:04;;;;;;;4.53;2.17;;;12.20;91.60;;;13.89;60.04;100195.25;3080404;46;20582;-66
2023/12/25 08:37:32;;;;;;;5.77;2.03;;;12.20;91.80;;;13.95;60.32;100189.13;3080082;46;20469;-66
2023/12/25 08:40:03;;;;;;;10.70;2.47;;;12.30;91.90;;;13.99;59.98;100190.31;3080574;46;20516;-66
2023/12/25 08:42:31;;;;;;;5.63;2.57;;;12.30;91.70;;;14.02;60.04;100203.97;3080365;46;20573;-66
2023/12/25 08:45:00;;;;;;;7.17;2.00;;;12.30;91.70;;;14.04;60.16;100203.75;3080495;46;20436;-64
2023/12/25 08:47:28;;;;;;;8.47;1.80;;;12.40;91.70;;;14.06;59.84;100201.69;3080026;46;20439;-66
2023/12/25 08:49:57;;;;;;;10.73;2.83;;;12.40;91.70;;;14.08;59.74;100194.34;3080029;46;20548;-66
2023/12/25 08:52:25;;;;;;;5.77;2.33;;;12.40;91.70;;;14.08;59.67;100205.75;3080655;46;20439;-63
2023/12/25 08:54:54;;;;;;;6.23;2.53;;;12.40;91.70;;;14.11;60.11;100212.47;3082495;46;21053;-66
2023/12/25 08:57:23;;;;;;;6.23;1.87;;;12.40;91.70;;;14.12;59.80;100217.53;3082412;46;20500;-63
2023/12/25 08:59:51;;;;;;;11.50;2.70;;;12.40;91.80;;;14.16;59.98;100217.94;3083012;46;20502;-66
2023/12/25 09:02:19;;;;;;;7.60;2.30;;;12.40;91.90;;;14.16;60.15;100228.53;3082839;46;20451;-66
2023/12/25 09:04:49;;;;;;;8.57;2.57;;;12.50;91.90;;;14.17;59.75;100223.00;3083207;46;21125;-64
2023/12/25 09:07:18;;;;;;;6.53;2.33;;;12.50;91.90;;;14.18;60.21;100223.84;3081896;46;20473;-66
2023/12/25 09:09:46;;;;;;;7.70;2.27;;;12.50;92.00;;;14.20;60.21;100227.06;3082661;46;20485;-68
2023/12/25 09:12:14;;;;;;;3.83;1.50;;;12.50;92.00;;;14.21;60.18;100236.66;3082787;46;20571;-66
2023/12/25 09:14:45;;;;;;;6.50;2.40;;;12.50;92.10;;;14.23;60.34;100245.19;3082958;46;20472;-66
2023/12/25 09:17:16;;;;;;;7.63;2.40;;;12.50;92.10;;;14.25;60.28;100243.16;3081767;46;20455;-66
2023/12/25 09:19:44;;;;;;;4.73;2.17;;;12.50;92.10;;;14.25;60.29;100248.44;3082506;46;20452;-66
2023/12/25 09:22:13;;;;;;;5.40;1.90;;;12.60;92.10;;;14.25;60.64;100249.25;3082529;46;20427;-65
2023/12/25 09:24:44;;;;;;;9.77;2.23;;;12.60;92.20;;;14.27;60.09;100241.91;3082733;46;20566;-66
2023/12/25 09:27:12;;;;;;;11.17;2.77;;;12.60;92.20;;;14.30;60.53;100246.00;3082228;46;20493;-66
2023/12/25 09:29:41;;;;;;;9.27;2.57;;;12.60;92.10;;;14.33;60.51;100261.47;3082832;46;20429;-66
2023/12/25 09:32:09;;;;;;;6.63;2.73;;;12.60;92.10;;;14.34;60.26;100263.09;3082574;46;21070;-66
2023/12/25 09:34:37;;;;;;;6.63;2.73;;;12.60;92.10;;;14.35;60.45;100264.72;3082322;46;20465;-66
2023/12/25 09:37:25;;;;;;;8.83;2.70;;;12.70;92.10;;;14.30;60.08;100263.69;3081838;46;20439;-66
2023/12/25 09:39:54;;;;;;;7.97;2.83;;;12.70;92.10;;;14.27;60.41;100272.88;3082169;46;21089;-66
2023/12/25 09:42:22;;;;;;;11.47;2.90;;;12.60;92.10;;;14.23;60.40;100266.38;3081397;46;20451;-66
2023/12/25 09:44:54;;;;;;;6.67;2.27;;;12.60;92.20;;;14.21;60.69;100268.41;3082428;46;20496;-67
2023/12/25 09:47:23;;;;;;;8.77;2.57;;;12.60;92.30;;;14.16;60.79;100266.41;3081759;46;20484;-66
2023/12/25 09:49:54;;;;;;;8.63;2.70;;;12.60;92.30;;;14.14;61.06;100272.94;3081508;46;20456;-64
2023/12/25 09:52:24;;;;;;;8.27;2.43;;;12.60;92.40;;;14.12;61.29;100281.06;3082153;46;20573;-66
2023/12/25 09:54:52;;;;;;;6.27;2.57;;;12.60;92.50;;;14.11;61.02;100284.75;3082071;46;20612;-66
2023/12/25 09:57:24;;;;;;;8.10;2.60;;;12.60;92.50;;;14.12;61.02;100285.56;3081952;46;20523;-65
2023/12/25 09:59:55;;;;;;;6.13;2.20;;;12.50;92.50;;;14.15;61.39;100285.13;3082513;46;20533;-64
2023/12/25 10:02:28;;;;;;;6.70;2.30;;;12.50;92.60;;;14.17;61.20;100288.38;3082481;46;21064;-64
2023/12/25 10:04:57;;;;;;;10.20;3.00;;;12.50;92.50;;;14.22;61.33;100293.84;3082191;46;21097;-65
2023/12/25 10:07:25;;;;;;;8.63;2.40;;;12.60;92.60;;;14.25;60.89;100296.91;3081600;46;20534;-64
2023/12/25 10:09:54;;;;;;;5.43;2.27;;;12.60;92.50;;;14.30;60.92;100298.97;3081989;46;20450;-66
2023/12/25 10:12:22;;;;;;;6.70;2.30;;;12.60;92.40;;;14.35;60.80;100293.03;3082609;46;20872;-66
2023/12/25 10:14:51;;;;;;;7.90;2.47;;;12.60;92.20;;;14.38;60.94;100292.63;3082223;46;20537;-66
2023/12/25 10:17:19;;;;;;;4.33;1.77;;;12.70;92.30;;;14.47;60.35;100291.34;3081754;46;20922;-64
2023/12/25 10:19:57;;;;;;;9.90;2.27;;;12.70;92.20;;;14.54;60.19;100290.31;3082175;46;20521;-65
2023/12/25 10:22:37;;;;;;;10.90;2.43;;;12.70;92.10;;;14.57;59.80;100295.16;3082192;46;20435;-66